createdAt,value
2024-01-07T00:08:37.194Z,23.73
2024-01-07T00:11:11.357Z,23.15
2024-01-07T00:16:46.033Z,26.30
2024-01-07T00:19:14.282Z,22.27
2024-01-07T00:21:44.029Z,21.90
2024-01-07T00:45:31.216Z,19.00
2024-01-07T01:13:20.700Z,23.00
2024-01-07T01:15:48.998Z,21.45
2024-01-07T01:18:17.720Z,22.00
2024-01-07T09:56:27.081Z,4.55
2024-01-07T10:59:31.732Z,3.47
2024-01-07T11:02:05.462Z,2.85
2024-01-07T11:17:39.343Z,2.42
2024-01-07T11:20:30.653Z,2.33
2024-01-07T11:32:42.993Z,1.63
2024-01-07T11:35:13.127Z,1.50
2024-01-07T11:37:43.088Z,1.83
2024-01-07T11:40:12.874Z,1.80
2024-01-07T11:42:43.200Z,1.05
2024-01-07T11:45:20.027Z,1.65
2024-01-07T11:47:52.279Z,1.67
2024-01-07T11:50:22.508Z,1.65
2024-01-07T12:18:12.924Z,1.60
2024-01-07T15:17:20.302Z,1.27
2024-01-07T15:19:50.921Z,1.70
2024-01-07T15:22:26.606Z,1.10
2024-01-07T15:24:55.241Z,1.27
2024-01-07T15:27:25.604Z,1.38
2024-01-07T15:29:54.607Z,1.95
2024-01-07T15:32:28.036Z,1.40
2024-01-07T15:34:59.760Z,1.25
2024-01-07T15:37:30.406Z,1.25
2024-01-07T15:39:58.565Z,1.80
2024-01-07T15:42:46.477Z,1.50
2024-01-07T15:45:14.042Z,1.50
2024-01-07T15:47:44.008Z,1.55
2024-01-07T15:50:12.816Z,1.50
2024-01-07T15:52:47.722Z,1.35
2024-01-07T15:55:16.264Z,1.33
2024-01-07T15:57:46.359Z,1.85
2024-01-07T16:00:16.173Z,1.83
2024-01-07T16:02:44.286Z,2.25
2024-01-07T16:05:12.414Z,1.52
2024-01-07T16:07:40.232Z,2.95
2024-01-07T16:10:09.270Z,1.40
2024-01-07T16:12:37.075Z,1.83
2024-01-07T16:15:05.318Z,2.40
2024-01-07T16:17:33.272Z,1.65
2024-01-07T16:20:00.961Z,1.75
2024-01-07T16:22:29.822Z,1.98
2024-01-07T16:24:57.247Z,2.65
2024-01-07T16:27:24.843Z,3.17
2024-01-07T16:29:52.754Z,3.03
2024-01-07T16:32:20.846Z,2.10
2024-01-07T16:34:48.942Z,3.22
2024-01-07T16:37:16.979Z,2.80
2024-01-07T16:39:44.503Z,3.08
2024-01-07T16:42:11.619Z,2.50
2024-01-07T16:44:39.560Z,3.42
2024-01-07T16:47:08.832Z,3.20
2024-01-07T16:50:19.325Z,3.13
2024-01-07T16:52:24.919Z,2.92
2024-01-07T16:54:52.202Z,3.05
2024-01-07T16:57:20.143Z,3.72
2024-01-07T16:59:48.321Z,3.22
2024-01-07T17:02:15.628Z,3.17
2024-01-07T17:04:43.159Z,3.35
2024-01-07T17:07:10.428Z,3.28
2024-01-07T17:09:37.714Z,2.75
2024-01-07T17:12:06.158Z,3.58
2024-01-07T17:14:33.680Z,2.80
2024-01-07T17:17:01.052Z,2.78
2024-01-07T17:19:28.473Z,3.47
2024-01-07T17:21:55.726Z,3.50
2024-01-07T17:24:23.076Z,3.15
2024-01-07T17:26:50.405Z,3.60
2024-01-07T17:29:17.970Z,3.05
2024-01-07T17:31:45.565Z,3.13
2024-01-07T17:34:12.790Z,3.65
2024-01-07T17:36:41.304Z,2.80
2024-01-07T17:39:10.892Z,3.25
2024-01-07T17:41:38.636Z,3.42
2024-01-07T17:44:06.511Z,3.03
2024-01-07T17:46:34.877Z,3.05
2024-01-07T17:49:05.218Z,3.60
2024-01-07T17:51:32.578Z,4.93
2024-01-07T17:53:59.872Z,3.50
2024-01-07T17:56:27.514Z,3.80
2024-01-07T17:58:55.894Z,5.18
2024-01-07T18:01:23.124Z,4.68
2024-01-07T18:03:50.521Z,4.32
2024-01-07T18:06:17.997Z,5.00
2024-01-07T18:08:52.106Z,4.25
2024-01-07T18:11:21.312Z,5.60
2024-01-07T18:13:49.202Z,5.60
2024-01-07T18:16:16.784Z,4.70
2024-01-07T18:18:44.464Z,5.82
2024-01-07T18:21:16.451Z,4.63
2024-01-07T18:23:44.128Z,4.20
2024-01-07T18:26:14.248Z,5.78
2024-01-07T18:28:43.643Z,5.00
2024-01-07T18:31:12.497Z,4.55
2024-01-07T18:33:40.023Z,5.35
2024-01-07T18:36:10.315Z,4.80
2024-01-07T18:38:39.365Z,5.15
2024-01-07T18:41:06.788Z,5.95
2024-01-07T18:43:34.573Z,5.05
2024-01-07T18:46:01.913Z,5.50
2024-01-07T18:48:29.548Z,6.70
2024-01-07T18:50:57.044Z,5.05
2024-01-07T18:53:24.308Z,5.68
2024-01-07T18:55:52.860Z,5.10
2024-01-07T18:58:20.926Z,5.05
2024-01-07T19:00:48.939Z,5.53
2024-01-07T19:03:17.644Z,5.45
2024-01-07T19:05:46.103Z,5.57
2024-01-07T19:08:13.340Z,5.38
2024-01-07T19:10:41.482Z,4.72
2024-01-07T19:13:08.990Z,4.55
2024-01-07T19:15:37.677Z,4.45
2024-01-07T19:18:05.546Z,5.38
2024-01-07T19:20:34.057Z,5.80
2024-01-07T19:23:02.553Z,5.75
2024-01-07T19:25:29.873Z,5.32
2024-01-07T19:27:58.413Z,5.60
2024-01-07T19:30:25.793Z,6.53
2024-01-07T19:32:53.260Z,5.20
2024-01-07T19:35:20.864Z,4.75
2024-01-07T19:37:48.255Z,5.30
2024-01-07T19:40:15.709Z,5.13
2024-01-07T19:42:42.942Z,5.22
2024-01-07T19:45:10.535Z,5.25
2024-01-07T19:47:37.885Z,4.72
2024-01-07T19:50:07.109Z,4.95
2024-01-07T19:52:34.706Z,5.32
2024-01-07T19:55:02.347Z,5.22
2024-01-07T19:57:31.046Z,4.53
2024-01-07T19:59:58.707Z,5.68
2024-01-07T20:02:26.012Z,4.93
2024-01-07T20:04:53.237Z,4.20
2024-01-07T20:07:20.602Z,4.10
2024-01-07T20:09:47.871Z,5.38
2024-01-07T20:12:15.327Z,4.43
2024-01-07T20:14:43.422Z,4.28
2024-01-07T20:17:11.093Z,4.78
2024-01-07T20:19:39.345Z,5.13
2024-01-07T20:22:06.873Z,4.53
2024-01-07T20:24:35.863Z,4.50
2024-01-07T20:27:03.438Z,5.32
2024-01-07T20:29:32.023Z,4.22
2024-01-07T20:31:59.397Z,5.38
2024-01-07T20:34:27.154Z,4.38
2024-01-07T20:36:54.795Z,5.60
2024-01-07T20:39:22.713Z,5.68
2024-01-07T20:41:50.879Z,6.47
2024-01-07T20:44:18.282Z,4.60
2024-01-07T20:46:45.589Z,5.07
2024-01-07T20:49:13.190Z,4.82
2024-01-07T20:51:40.990Z,5.68
2024-01-07T20:54:08.267Z,4.60
2024-01-07T20:56:38.223Z,6.72
2024-01-07T20:59:08.284Z,6.47
2024-01-07T21:01:35.553Z,6.18
2024-01-07T21:04:02.896Z,5.82
2024-01-07T21:06:30.515Z,5.30
2024-01-07T21:08:57.943Z,6.30
2024-01-07T21:11:25.339Z,5.60
2024-01-07T21:13:52.766Z,6.15
2024-01-07T21:16:20.073Z,5.53
2024-01-07T21:18:48.547Z,5.50
2024-01-07T21:21:17.008Z,6.00
2024-01-07T21:23:44.259Z,5.80
2024-01-07T21:26:12.305Z,5.63
2024-01-07T21:28:39.809Z,5.53
2024-01-07T21:31:09.975Z,5.10
2024-01-07T21:33:39.102Z,5.53
2024-01-07T21:36:06.822Z,5.80
2024-01-07T21:38:34.256Z,6.65
2024-01-07T21:41:05.629Z,6.43
2024-01-07T21:43:34.250Z,6.00
2024-01-07T21:46:06.097Z,6.20
2024-01-07T21:48:35.268Z,6.53
2024-01-07T21:51:04.339Z,5.60
2024-01-07T21:53:31.721Z,6.35
2024-01-07T21:56:01.610Z,5.53
2024-01-07T21:58:30.440Z,4.78
2024-01-07T22:00:57.753Z,4.70
2024-01-07T22:03:25.280Z,4.13
2024-01-07T22:05:52.719Z,4.65
2024-01-07T22:08:20.030Z,4.05
2024-01-07T22:10:47.262Z,4.20
2024-01-07T22:13:14.670Z,4.22
2024-01-07T22:15:42.421Z,3.40
2024-01-07T22:18:10.136Z,2.58
2024-01-07T22:20:37.496Z,3.40
2024-01-07T22:23:04.903Z,3.30
2024-01-07T22:25:32.664Z,3.80
2024-01-07T22:27:59.809Z,3.95
2024-01-07T22:30:27.087Z,3.63
2024-01-07T22:32:54.439Z,2.58
2024-01-07T22:35:21.988Z,3.28
2024-01-07T22:37:51.300Z,3.55
2024-01-07T22:40:18.668Z,2.70
2024-01-07T22:42:45.845Z,2.65
2024-01-07T22:45:13.173Z,2.95
2024-01-07T22:47:40.382Z,2.97
2024-01-07T22:50:08.347Z,2.88
2024-01-07T22:52:35.692Z,2.83
2024-01-07T22:55:02.877Z,3.25
2024-01-07T22:57:30.179Z,3.17
2024-01-07T22:59:58.525Z,2.65
2024-01-07T23:02:25.730Z,3.67
2024-01-07T23:04:53.204Z,3.58
2024-01-07T23:07:20.771Z,3.10
2024-01-07T23:09:48.093Z,2.90
2024-01-07T23:12:15.445Z,3.20
2024-01-07T23:14:42.624Z,2.92
2024-01-07T23:17:10.015Z,3.05
2024-01-07T23:19:37.314Z,3.03
2024-01-07T23:22:04.849Z,2.60
2024-01-07T23:24:32.239Z,3.05
2024-01-07T23:26:59.531Z,3.10
2024-01-07T23:29:26.973Z,2.97
2024-01-07T23:31:54.669Z,3.17
2024-01-07T23:34:22.245Z,3.45
2024-01-07T23:36:49.638Z,3.80
2024-01-07T23:39:16.698Z,3.58
2024-01-07T23:41:44.170Z,3.83
2024-01-07T23:44:12.079Z,3.53
2024-01-07T23:46:39.605Z,3.50
2024-01-07T23:49:07.033Z,3.10
2024-01-07T23:51:34.331Z,3.50
2024-01-07T23:54:01.494Z,3.70
2024-01-07T23:56:28.794Z,3.30
2024-01-07T23:58:56.209Z,3.67
